createdAt,value
2019-04-14T00:01:26.239Z,68.90
2019-04-14T00:04:16.148Z,68.90
2019-04-14T00:06:46.372Z,68.90
2019-04-14T00:09:18.371Z,68.80
2019-04-14T00:11:48.210Z,68.90
2019-04-14T00:14:18.567Z,69.00
2019-04-14T00:16:48.978Z,69.10
2019-04-14T00:19:19.569Z,69.10
2019-04-14T00:21:50.440Z,69.20
2019-04-14T00:24:20.627Z,68.90
2019-04-14T00:26:50.996Z,69.30
2019-04-14T00:29:21.732Z,69.20
2019-04-14T00:31:53.711Z,69.10
2019-04-14T00:34:42.014Z,69.30
2019-04-14T00:37:37.962Z,69.20
2019-04-14T00:40:17.899Z,69.00
2019-04-14T00:43:04.832Z,69.10
2019-04-14T00:45:55.100Z,69.10
2019-04-14T00:48:25.855Z,69.00
2019-04-14T00:50:55.979Z,68.90
2019-04-14T00:53:25.853Z,69.00
2019-04-14T00:55:55.600Z,69.00
2019-04-14T00:58:25.747Z,69.00
2019-04-14T01:00:55.840Z,68.90
2019-04-14T01:03:26.566Z,68.80
2019-04-14T01:05:56.897Z,68.80
2019-04-14T01:08:26.992Z,68.80
2019-04-14T01:10:56.936Z,68.80
2019-04-14T01:13:26.827Z,69.00
2019-04-14T01:16:03.763Z,69.00
2019-04-14T01:18:28.237Z,68.90
2019-04-14T01:20:58.219Z,68.90
2019-04-14T01:23:28.302Z,69.60
2019-04-14T01:25:58.504Z,68.80
2019-04-14T01:28:28.728Z,68.80
2019-04-14T01:30:59.033Z,69.00
2019-04-14T01:33:29.380Z,69.00
2019-04-14T01:35:59.615Z,69.00
2019-04-14T01:38:29.696Z,69.10
2019-04-14T01:40:59.931Z,68.90
2019-04-14T01:43:30.009Z,69.00
2019-04-14T01:46:09.646Z,68.90
2019-04-14T01:48:32.379Z,69.00
2019-04-14T01:51:20.271Z,69.00
2019-04-14T01:54:25.630Z,69.10
2019-04-14T01:57:11.103Z,69.30
2019-04-14T01:59:41.299Z,69.60
2019-04-14T02:02:16.247Z,69.40
2019-04-14T02:04:46.398Z,69.50
2019-04-14T02:07:17.493Z,69.40
2019-04-14T02:09:47.262Z,69.50
2019-04-14T02:12:17.074Z,69.60
2019-04-14T02:14:47.413Z,69.40
2019-04-14T02:17:17.763Z,69.40
2019-04-14T02:19:48.124Z,69.50
2019-04-14T02:22:20.193Z,69.70
2019-04-14T02:24:50.356Z,69.50
2019-04-14T02:27:21.039Z,69.50
2019-04-14T02:29:51.623Z,69.50
2019-04-14T02:32:54.991Z,69.70
2019-04-14T02:35:25.617Z,70.30
2019-04-14T02:37:54.460Z,70.60
2019-04-14T02:40:28.623Z,69.90
2019-04-14T02:43:23.746Z,70.10
2019-04-14T02:45:44.949Z,70.10
2019-04-14T02:48:20.279Z,70.10
2019-04-14T02:50:30.672Z,70.20
2019-04-14T02:53:12.231Z,70.20
2019-04-14T02:58:10.284Z,70.40
2019-04-14T03:00:46.099Z,70.40
2019-04-14T03:03:16.926Z,70.20
2019-04-14T03:05:49.910Z,70.20
2019-04-14T03:08:18.777Z,70.40
2019-04-14T03:15:47.884Z,70.30
2019-04-14T03:18:44.589Z,70.30
2019-04-14T03:21:30.586Z,70.40
2019-04-14T03:24:12.930Z,70.40
2019-04-14T03:27:02.026Z,70.40
2019-04-14T03:29:48.399Z,70.40
2019-04-14T03:34:43.013Z,70.20
2019-04-14T03:37:29.220Z,70.20
2019-04-14T03:39:44.341Z,70.00
2019-04-14T03:42:12.498Z,70.30
2019-04-14T03:44:42.077Z,70.30
2019-04-14T03:47:13.231Z,70.40
2019-04-14T03:50:00.053Z,70.60
2019-04-14T03:52:13.596Z,70.60
2019-04-14T03:54:40.441Z,70.50
2019-04-14T03:56:55.731Z,70.40
2019-04-14T03:59:26.150Z,70.40
2019-04-14T04:01:56.653Z,70.40
2019-04-14T04:04:27.498Z,70.50
2019-04-14T04:06:57.553Z,70.50
2019-04-14T04:09:32.218Z,70.30
2019-04-14T04:12:03.034Z,70.30
2019-04-14T04:14:33.483Z,70.30
2019-04-14T04:17:38.635Z,70.50
2019-04-14T04:20:37.154Z,70.30
2019-04-14T04:23:31.468Z,70.20
2019-04-14T04:26:15.443Z,70.70
2019-04-14T04:29:16.508Z,70.40
2019-04-14T04:32:20.768Z,70.50
2019-04-14T04:34:58.120Z,70.70
2019-04-14T04:37:32.676Z,70.70
2019-04-14T04:40:07.242Z,70.70
2019-04-14T04:42:37.286Z,70.60
2019-04-14T04:45:08.141Z,70.70
2019-04-14T04:47:38.367Z,70.60
2019-04-14T04:50:08.612Z,70.80
2019-04-14T04:52:38.611Z,70.70
2019-04-14T04:55:08.888Z,70.80
2019-04-14T04:57:39.496Z,71.10
2019-04-14T05:00:11.289Z,70.90
2019-04-14T05:02:41.821Z,71.10
2019-04-14T05:05:47.601Z,71.00
2019-04-14T05:08:17.419Z,71.20
2019-04-14T05:10:56.696Z,71.30
2019-04-14T05:13:31.379Z,71.40
2019-04-14T05:16:02.272Z,71.30
2019-04-14T05:18:32.063Z,71.30
2019-04-14T05:21:01.844Z,71.40
2019-04-14T05:23:32.106Z,71.40
2019-04-14T05:26:02.730Z,71.50
2019-04-14T05:28:33.211Z,71.40
2019-04-14T05:31:03.389Z,71.60
2019-04-14T05:33:33.644Z,71.70
2019-04-14T05:36:04.179Z,71.40
2019-04-14T05:38:35.407Z,71.30
2019-04-14T05:41:06.842Z,71.70
2019-04-14T05:43:43.512Z,71.40
2019-04-14T05:46:08.206Z,71.40
2019-04-14T05:48:38.114Z,71.40
2019-04-14T05:51:08.517Z,71.30
2019-04-14T05:53:39.308Z,71.30
2019-04-14T05:56:09.944Z,71.50
2019-04-14T05:58:40.420Z,71.30
2019-04-14T06:01:11.345Z,71.20
2019-04-14T06:03:41.165Z,71.10
2019-04-14T06:06:10.883Z,71.00
2019-04-14T06:08:40.678Z,70.80
2019-04-14T06:11:10.385Z,70.80
2019-04-14T06:13:40.191Z,70.60
2019-04-14T06:16:10.048Z,70.60
2019-04-14T06:18:39.849Z,70.60
2019-04-14T06:21:09.631Z,70.50
2019-04-14T06:23:39.360Z,70.50
2019-04-14T06:26:09.162Z,70.40
2019-04-14T06:28:39.036Z,70.20
2019-04-14T06:31:26.774Z,70.20
2019-04-14T06:34:00.801Z,70.20
2019-04-14T06:36:48.752Z,70.40
2019-04-14T06:39:24.584Z,70.70
2019-04-14T06:41:54.453Z,70.70
2019-04-14T06:44:24.327Z,70.80
2019-04-14T06:46:54.040Z,70.60
2019-04-14T06:49:23.996Z,70.00
2019-04-14T06:51:53.781Z,69.10
2019-04-14T06:54:23.582Z,68.00
2019-04-14T06:56:53.307Z,66.20
2019-04-14T06:59:23.084Z,66.40
2019-04-14T07:01:52.891Z,65.60
2019-04-14T07:04:22.671Z,64.30
2019-04-14T07:06:52.562Z,61.40
2019-04-14T07:09:22.270Z,61.50
2019-04-14T07:11:52.123Z,61.30
2019-04-14T07:14:21.870Z,59.20
2019-04-14T07:16:51.642Z,58.80
2019-04-14T07:19:21.385Z,58.50
2019-04-14T07:21:51.109Z,57.40
2019-04-14T07:24:20.817Z,56.50
2019-04-14T07:26:50.635Z,55.00
2019-04-14T07:29:20.419Z,55.10
2019-04-14T07:32:09.233Z,54.70
2019-04-14T07:34:56.191Z,53.70
2019-04-14T07:37:48.037Z,53.20
2019-04-14T07:40:30.629Z,51.60
2019-04-14T07:43:05.920Z,51.10
2019-04-14T07:45:48.708Z,49.70
2019-04-14T07:48:26.210Z,50.00
2019-04-14T07:51:04.092Z,48.90
2019-04-14T07:53:55.798Z,48.20
2019-04-14T07:56:50.689Z,48.10
2019-04-14T07:59:30.688Z,47.70
2019-04-14T08:02:18.665Z,47.60
2019-04-14T08:05:07.532Z,47.10
2019-04-14T08:07:37.300Z,47.10
2019-04-14T08:10:08.250Z,46.60
2019-04-14T08:12:38.128Z,44.60
2019-04-14T08:15:08.971Z,44.60
2019-04-14T08:17:38.837Z,43.80
2019-04-14T08:20:08.812Z,44.10
2019-04-14T08:22:39.522Z,42.70
2019-04-14T08:25:10.913Z,42.80
2019-04-14T08:27:40.717Z,42.40
2019-04-14T08:30:10.823Z,42.50
2019-04-14T08:32:40.685Z,42.10
2019-04-14T08:35:10.538Z,41.00
2019-04-14T08:37:40.336Z,40.30
2019-04-14T08:40:10.491Z,40.40
2019-04-14T08:42:58.441Z,40.30
2019-04-14T08:45:56.451Z,39.60
2019-04-14T08:48:48.137Z,38.10
2019-04-14T08:51:28.107Z,38.00
2019-04-14T08:54:11.861Z,38.10
2019-04-14T08:56:50.653Z,38.10
2019-04-14T08:59:38.394Z,37.70
2019-04-14T09:02:22.217Z,36.20
2019-04-14T09:05:27.197Z,34.90
2019-04-14T09:08:06.491Z,35.30
2019-04-14T09:10:39.203Z,34.70
2019-04-14T09:13:08.968Z,34.00
2019-04-14T09:15:38.842Z,32.90
2019-04-14T09:18:08.634Z,33.10
2019-04-14T09:20:38.531Z,33.50
2019-04-14T09:23:08.391Z,32.40
2019-04-14T09:25:38.193Z,33.40
2019-04-14T09:28:07.886Z,32.70
2019-04-14T09:30:37.611Z,32.50
2019-04-14T09:33:07.373Z,32.60
2019-04-14T09:35:37.176Z,31.20
2019-04-14T09:38:07.025Z,31.70
2019-04-14T09:40:36.829Z,31.80
2019-04-14T09:43:06.644Z,30.00
2019-04-14T09:45:36.358Z,30.60
2019-04-14T09:48:06.161Z,31.00
2019-04-14T09:50:35.881Z,31.10
2019-04-14T09:53:05.666Z,31.10
2019-04-14T09:55:35.565Z,31.70
2019-04-14T09:58:05.447Z,31.40
2019-04-14T10:00:37.124Z,31.00
2019-04-14T10:03:06.913Z,30.40
2019-04-14T10:05:36.848Z,29.20
2019-04-14T10:08:06.881Z,28.90
2019-04-14T10:10:36.740Z,29.30
2019-04-14T10:13:06.568Z,30.00
2019-04-14T10:15:36.353Z,29.60
2019-04-14T10:18:06.227Z,29.40
2019-04-14T10:20:36.102Z,29.70
2019-04-14T10:23:05.830Z,29.60
2019-04-14T10:25:35.615Z,30.50
2019-04-14T10:28:05.421Z,31.00
2019-04-14T10:30:35.755Z,30.70
2019-04-14T10:33:05.629Z,30.90
2019-04-14T10:35:35.333Z,31.10
2019-04-14T10:38:05.205Z,31.40
2019-04-14T10:40:35.192Z,31.40
2019-04-14T10:43:05.289Z,30.70
2019-04-14T10:45:35.407Z,30.30
2019-04-14T10:48:05.329Z,30.70
2019-04-14T10:50:35.110Z,30.50
2019-04-14T10:53:04.994Z,30.70
2019-04-14T10:55:34.727Z,31.00
2019-04-14T10:58:04.610Z,32.30
2019-04-14T11:00:34.387Z,31.80
2019-04-14T11:03:04.429Z,32.30
2019-04-14T11:05:43.483Z,32.60
2019-04-14T11:08:13.281Z,33.70
2019-04-14T11:10:43.132Z,34.30
2019-04-14T11:13:12.871Z,35.50
2019-04-14T11:15:42.823Z,35.80
2019-04-14T11:18:12.544Z,35.60
2019-04-14T11:20:42.259Z,36.40
2019-04-14T11:23:12.064Z,35.80
2019-04-14T11:25:41.761Z,36.10
2019-04-14T11:28:11.552Z,36.50
2019-04-14T11:30:41.476Z,37.10
2019-04-14T11:33:16.543Z,37.60
2019-04-14T11:35:53.937Z,37.90
2019-04-14T11:38:31.582Z,37.70
2019-04-14T11:41:03.265Z,36.90
2019-04-14T11:43:34.084Z,37.50
2019-04-14T11:46:04.268Z,38.20
2019-04-14T11:48:34.334Z,37.50
2019-04-14T11:51:04.234Z,37.50
2019-04-14T11:53:34.131Z,37.70
2019-04-14T11:56:03.989Z,38.00
2019-04-14T11:58:33.789Z,38.60
2019-04-14T12:01:40.856Z,38.60
2019-04-14T12:04:28.615Z,38.60
2019-04-14T12:07:06.890Z,38.90
2019-04-14T12:09:43.992Z,38.60
2019-04-14T12:12:13.784Z,38.60
2019-04-14T12:14:43.653Z,38.20
2019-04-14T12:17:13.461Z,38.40
2019-04-14T12:19:43.334Z,38.20
2019-04-14T12:22:13.126Z,39.00
2019-04-14T12:24:42.927Z,39.00
2019-04-14T12:27:12.661Z,39.20
2019-04-14T12:29:43.324Z,39.30
2019-04-14T12:32:13.361Z,39.70
2019-04-14T12:34:43.174Z,39.40
2019-04-14T12:37:13.040Z,39.10
2019-04-14T12:39:42.763Z,39.00
2019-04-14T12:42:37.562Z,39.50
2019-04-14T12:45:25.961Z,39.60
2019-04-14T12:48:17.878Z,39.30
2019-04-14T12:50:51.910Z,39.40
2019-04-14T12:53:21.746Z,39.90
2019-04-14T12:55:51.493Z,39.70
2019-04-14T12:58:26.321Z,39.90
2019-04-14T13:01:01.188Z,40.20
2019-04-14T13:03:33.264Z,40.30
2019-04-14T13:06:03.159Z,41.30
2019-04-14T13:08:33.047Z,41.30
2019-04-14T13:11:03.326Z,41.10
2019-04-14T13:13:33.102Z,41.30
2019-04-14T13:16:05.267Z,41.40
2019-04-14T13:18:35.137Z,41.40
2019-04-14T13:21:05.170Z,40.80
2019-04-14T13:23:34.938Z,40.80
2019-04-14T13:26:04.748Z,40.90
2019-04-14T13:28:34.542Z,41.20
2019-04-14T13:31:04.474Z,41.40
2019-04-14T13:33:34.176Z,41.80
2019-04-14T13:36:05.278Z,41.30
2019-04-14T13:38:34.991Z,41.10
2019-04-14T13:41:05.238Z,41.20
2019-04-14T13:43:35.119Z,41.50
2019-04-14T13:46:05.018Z,41.40
2019-04-14T13:48:35.201Z,41.60
2019-04-14T13:51:05.479Z,41.20
2019-04-14T13:53:35.338Z,41.50
2019-04-14T13:56:05.348Z,41.60
2019-04-14T13:58:38.098Z,41.80
2019-04-14T14:01:07.489Z,42.00
2019-04-14T14:03:37.718Z,41.80
2019-04-14T14:06:07.630Z,41.70
2019-04-14T14:08:37.934Z,41.80
2019-04-14T14:11:32.443Z,41.60
2019-04-14T14:14:16.007Z,42.30
2019-04-14T14:17:11.399Z,42.30
2019-04-14T14:19:47.789Z,42.50
2019-04-14T14:22:23.665Z,42.90
2019-04-14T14:24:59.066Z,43.00
2019-04-14T14:27:28.881Z,42.90
2019-04-14T14:29:58.691Z,43.40
2019-04-14T14:32:36.333Z,43.50
2019-04-14T14:35:06.745Z,43.20
2019-04-14T14:37:36.649Z,43.20
2019-04-14T14:40:07.361Z,43.10
2019-04-14T14:42:38.057Z,43.00
2019-04-14T14:45:17.805Z,42.90
2019-04-14T14:47:55.326Z,43.00
2019-04-14T14:50:43.951Z,43.00
2019-04-14T14:53:13.724Z,43.30
2019-04-14T14:55:43.484Z,43.40
2019-04-14T14:58:13.249Z,43.60
2019-04-14T15:00:43.139Z,43.90
2019-04-14T15:03:12.991Z,43.60
2019-04-14T15:05:42.784Z,43.30
2019-04-14T15:08:12.682Z,43.30
2019-04-14T15:10:42.673Z,43.60
2019-04-14T15:13:12.362Z,43.70
2019-04-14T15:15:42.173Z,43.90
2019-04-14T15:18:12.138Z,44.00
2019-04-14T15:20:41.945Z,44.20
2019-04-14T15:23:24.051Z,44.00
2019-04-14T15:25:43.259Z,44.10
2019-04-14T15:28:15.643Z,44.00
2019-04-14T15:30:44.652Z,44.10
2019-04-14T15:33:14.530Z,44.40
2019-04-14T15:35:45.406Z,44.50
2019-04-14T15:38:18.336Z,44.90
2019-04-14T15:40:48.117Z,45.20
2019-04-14T15:43:17.894Z,45.40
2019-04-14T15:45:47.846Z,45.60
2019-04-14T15:48:17.757Z,46.40
2019-04-14T15:50:47.641Z,46.00
2019-04-14T15:53:17.525Z,46.20
2019-04-14T15:55:47.238Z,46.40
2019-04-14T15:58:36.009Z,46.60
2019-04-14T16:01:24.125Z,46.30
2019-04-14T16:04:02.229Z,46.20
2019-04-14T16:06:54.329Z,46.40
2019-04-14T16:09:49.100Z,46.40
2019-04-14T16:12:25.886Z,46.60
2019-04-14T16:15:15.559Z,46.60
2019-04-14T16:17:57.263Z,46.80
2019-04-14T16:20:31.829Z,46.90
2019-04-14T16:23:01.552Z,47.20
2019-04-14T16:25:47.325Z,47.50
2019-04-14T16:28:31.800Z,47.80
2019-04-14T16:31:26.210Z,47.90
2019-04-14T16:34:13.750Z,48.00
2019-04-14T16:36:44.677Z,48.00
2019-04-14T16:39:14.649Z,48.60
2019-04-14T16:41:44.645Z,48.20
2019-04-14T16:44:14.396Z,48.30
2019-04-14T16:46:44.249Z,48.40
2019-04-14T16:49:14.095Z,48.50
2019-04-14T16:51:48.494Z,48.70
2019-04-14T16:54:27.947Z,48.90
2019-04-14T16:57:09.668Z,48.90
2019-04-14T16:59:39.370Z,48.90
2019-04-14T17:02:11.074Z,49.00
2019-04-14T17:04:43.679Z,49.30
2019-04-14T17:07:13.498Z,49.30
2019-04-14T17:09:43.205Z,49.30
2019-04-14T17:12:14.615Z,49.50
2019-04-14T17:14:52.319Z,49.60
2019-04-14T17:17:59.663Z,49.60
2019-04-14T17:20:43.994Z,50.00
2019-04-14T17:23:31.824Z,50.00
2019-04-14T17:26:11.244Z,50.20
2019-04-14T17:28:51.634Z,50.30
2019-04-14T17:31:31.556Z,50.70
2019-04-14T17:34:14.704Z,50.60
2019-04-14T17:37:06.918Z,50.80
2019-04-14T17:39:42.405Z,51.00
2019-04-14T17:42:50.472Z,51.10
2019-04-14T17:45:38.176Z,51.10
2019-04-14T17:48:25.529Z,51.30
2019-04-14T17:51:03.137Z,51.40
2019-04-14T17:53:38.120Z,51.60
2019-04-14T17:56:31.053Z,51.60
2019-04-14T17:59:25.389Z,51.70
2019-04-14T18:02:13.004Z,51.90
2019-04-14T18:05:02.381Z,52.20
2019-04-14T18:07:54.099Z,52.40
2019-04-14T18:10:40.911Z,52.40
2019-04-14T18:13:18.282Z,53.00
2019-04-14T18:16:07.470Z,53.00
2019-04-14T18:19:02.344Z,53.30
2019-04-14T18:21:32.274Z,53.70
2019-04-14T18:24:02.349Z,53.80
2019-04-14T18:26:32.234Z,54.10
2019-04-14T18:29:19.867Z,54.20
2019-04-14T18:31:55.355Z,55.10
2019-04-14T18:34:35.554Z,54.60
2019-04-14T18:37:12.803Z,54.70
2019-04-14T18:39:53.865Z,54.80
2019-04-14T18:42:37.318Z,55.00
2019-04-14T18:45:20.316Z,55.40
2019-04-14T18:48:07.248Z,55.70
2019-04-14T18:50:55.076Z,55.80
2019-04-14T18:53:34.905Z,55.80
2019-04-14T18:56:09.776Z,55.80
2019-04-14T18:58:45.006Z,56.50
2019-04-14T19:01:23.645Z,56.50
2019-04-14T19:03:53.523Z,56.40
2019-04-14T19:06:23.258Z,56.60
2019-04-14T19:08:55.113Z,56.90
2019-04-14T19:11:55.924Z,57.10
2019-04-14T19:14:28.465Z,56.90
2019-04-14T19:17:05.521Z,57.30
2019-04-14T19:19:36.907Z,57.70
2019-04-14T19:22:06.782Z,57.70
2019-04-14T19:24:36.654Z,57.80
2019-04-14T19:27:06.609Z,58.20
2019-04-14T19:29:36.411Z,58.50
2019-04-14T19:32:06.272Z,58.90
2019-04-14T19:34:36.067Z,58.90
2019-04-14T19:37:05.888Z,59.00
2019-04-14T19:39:35.762Z,59.30
2019-04-14T19:42:07.099Z,59.30
2019-04-14T19:44:36.894Z,59.70
2019-04-14T19:47:06.629Z,59.70
2019-04-14T19:49:36.351Z,60.00
2019-04-14T19:52:06.244Z,59.90
2019-04-14T19:54:36.089Z,60.00
2019-04-14T19:57:05.979Z,60.10
2019-04-14T19:59:35.778Z,60.50
2019-04-14T20:02:05.658Z,60.80
2019-04-14T20:04:35.463Z,60.80
2019-04-14T20:07:05.279Z,61.90
2019-04-14T20:09:35.156Z,61.00
2019-04-14T20:12:05.134Z,61.10
2019-04-14T20:14:34.951Z,61.10
2019-04-14T20:17:36.258Z,61.00
2019-04-14T20:20:27.753Z,61.10
2019-04-14T20:23:16.646Z,61.30
2019-04-14T20:25:56.922Z,61.40
2019-04-14T20:28:32.301Z,61.70
2019-04-14T20:31:21.152Z,61.60
2019-04-14T20:33:51.186Z,61.60
2019-04-14T20:36:21.013Z,61.50
2019-04-14T20:38:50.813Z,61.60
2019-04-14T20:41:20.615Z,61.40
2019-04-14T20:43:50.457Z,61.40
2019-04-14T20:46:20.448Z,61.60
2019-04-14T20:48:50.233Z,61.60
2019-04-14T20:51:19.948Z,61.60
2019-04-14T20:53:49.760Z,61.80
2019-04-14T20:56:19.477Z,61.50
2019-04-14T20:58:49.196Z,61.90
2019-04-14T21:01:19.819Z,62.30
2019-04-14T21:04:20.730Z,61.90
2019-04-14T21:07:15.637Z,61.70
2019-04-14T21:09:53.895Z,61.90
2019-04-14T21:12:35.635Z,61.50
2019-04-14T21:15:19.767Z,61.60
2019-04-14T21:18:11.581Z,61.60
2019-04-14T21:21:15.540Z,61.70
2019-04-14T21:23:52.094Z,61.90
2019-04-14T21:26:39.584Z,61.90
2019-04-14T21:29:27.205Z,61.90
2019-04-14T21:32:10.047Z,61.80
2019-04-14T21:35:11.044Z,61.80
2019-04-14T21:37:48.996Z,61.90
2019-04-14T21:40:22.868Z,61.80
2019-04-14T21:42:52.640Z,61.70
2019-04-14T21:45:22.503Z,62.10
2019-04-14T21:47:52.377Z,61.90
2019-04-14T21:50:22.165Z,62.00
2019-04-14T21:52:51.898Z,62.10
2019-04-14T21:55:23.307Z,62.10
2019-04-14T21:58:02.058Z,62.20
2019-04-14T22:01:39.849Z,62.20
2019-04-14T22:04:37.640Z,62.40
2019-04-14T22:07:25.506Z,62.30
2019-04-14T22:09:58.844Z,62.10
2019-04-14T22:12:29.480Z,62.50
2019-04-14T22:14:59.182Z,62.60
2019-04-14T22:17:28.916Z,62.40
2019-04-14T22:19:58.764Z,62.70
2019-04-14T22:22:28.634Z,62.70
2019-04-14T22:24:58.333Z,63.00
2019-04-14T22:27:28.135Z,63.00
2019-04-14T22:29:57.907Z,63.00
2019-04-14T22:32:27.705Z,63.40
2019-04-14T22:34:57.480Z,63.20
2019-04-14T22:37:27.367Z,63.20
2019-04-14T22:39:57.078Z,64.00
2019-04-14T22:42:26.915Z,63.50
2019-04-14T22:44:56.845Z,63.40
2019-04-14T22:47:26.672Z,63.40
2019-04-14T22:49:56.536Z,63.50
2019-04-14T22:52:26.427Z,63.70
2019-04-14T22:54:56.180Z,63.60
2019-04-14T22:57:25.976Z,63.90
2019-04-14T22:59:55.735Z,63.70
2019-04-14T23:02:42.856Z,63.80
2019-04-14T23:05:34.732Z,63.90
2019-04-14T23:08:14.046Z,64.00
2019-04-14T23:11:05.766Z,64.00
2019-04-14T23:13:50.683Z,64.10
2019-04-14T23:16:33.849Z,64.20
2019-04-14T23:19:17.455Z,64.60
2019-04-14T23:22:01.169Z,64.30
2019-04-14T23:24:34.407Z,64.40
2019-04-14T23:27:04.196Z,64.20
2019-04-14T23:29:33.928Z,64.40
2019-04-14T23:32:04.196Z,64.40
2019-04-14T23:34:34.000Z,64.50
2019-04-14T23:37:03.753Z,64.40
2019-04-14T23:39:34.557Z,64.50
2019-04-14T23:42:04.505Z,64.70
2019-04-14T23:44:34.310Z,64.40
2019-04-14T23:47:04.209Z,64.80
2019-04-14T23:49:34.014Z,64.70
2019-04-14T23:52:03.804Z,64.90
2019-04-14T23:54:33.601Z,65.00
2019-04-14T23:57:05.913Z,64.80
2019-04-14T23:59:34.937Z,64.90
